sensor_id;sensor_type;location;lat;lon;timestamp;P1;durP1;ratioP1;P2;durP2;ratioP2
71127;SDS011;59249;59.736;30.568;2022-09-09T00:00:46;22.27;;;9.27;;
71127;SDS011;59249;59.736;30.568;2022-09-09T00:03:23;23.80;;;8.87;;
71127;SDS011;59249;59.736;30.568;2022-09-09T00:05:57;19.10;;;8.52;;
71127;SDS011;59249;59.736;30.568;2022-09-09T00:08:38;18.00;;;8.65;;
71127;SDS011;59249;59.736;30.568;2022-09-09T00:11:20;18.30;;;8.70;;
71127;SDS011;59249;59.736;30.568;2022-09-09T00:13:58;18.65;;;8.77;;
71127;SDS011;59249;59.736;30.568;2022-09-09T00:16:35;20.07;;;8.63;;
71127;SDS011;59249;59.736;30.568;2022-09-09T00:19:13;14.18;;;7.38;;
71127;SDS011;59249;59.736;30.568;2022-09-09T00:21:52;19.75;;;8.52;;
71127;SDS011;59249;59.736;30.568;2022-09-09T00:24:37;18.15;;;8.23;;
71127;SDS011;59249;59.736;30.568;2022-09-09T00:27:13;17.13;;;7.35;;
71127;SDS011;59249;59.736;30.568;2022-09-09T00:29:54;18.43;;;8.37;;
71127;SDS011;59249;59.736;30.568;2022-09-09T00:32:30;18.85;;;7.20;;
71127;SDS011;59249;59.736;30.568;2022-09-09T00:35:03;15.65;;;7.95;;
71127;SDS011;59249;59.736;30.568;2022-09-09T00:37:44;20.02;;;8.65;;
71127;SDS011;59249;59.736;30.568;2022-09-09T00:40:25;19.98;;;8.35;;
71127;SDS011;59249;59.736;30.568;2022-09-09T00:43:08;15.77;;;6.97;;
71127;SDS011;59249;59.736;30.568;2022-09-09T00:45:57;15.27;;;7.22;;
71127;SDS011;59249;59.736;30.568;2022-09-09T00:48:56;18.75;;;8.30;;
71127;SDS011;59249;59.736;30.568;2022-09-09T00:51:36;16.75;;;7.90;;
71127;SDS011;59249;59.736;30.568;2022-09-09T00:54:21;16.20;;;7.10;;
71127;SDS011;59249;59.736;30.568;2022-09-09T00:57:04;18.40;;;7.90;;
71127;SDS011;59249;59.736;30.568;2022-09-09T00:59:46;16.10;;;7.18;;
71127;SDS011;59249;59.736;30.568;2022-09-09T01:02:26;18.50;;;8.18;;
71127;SDS011;59249;59.736;30.568;2022-09-09T01:05:02;17.42;;;7.75;;
71127;SDS011;59249;59.736;30.568;2022-09-09T01:07:40;17.80;;;7.57;;
71127;SDS011;59249;59.736;30.568;2022-09-09T01:10:24;15.83;;;8.00;;
71127;SDS011;59249;59.736;30.568;2022-09-09T01:13:04;14.48;;;6.45;;
71127;SDS011;59249;59.736;30.568;2022-09-09T01:15:47;15.35;;;7.28;;
71127;SDS011;59249;59.736;30.568;2022-09-09T01:18:27;14.65;;;7.15;;
71127;SDS011;59249;59.736;30.568;2022-09-09T01:21:04;15.45;;;7.43;;
71127;SDS011;59249;59.736;30.568;2022-09-09T01:23:55;18.07;;;7.23;;
71127;SDS011;59249;59.736;30.568;2022-09-09T01:26:56;18.25;;;7.88;;
71127;SDS011;59249;59.736;30.568;2022-09-09T01:29:27;16.70;;;6.85;;
71127;SDS011;59249;59.736;30.568;2022-09-09T01:31:58;17.30;;;7.45;;
71127;SDS011;59249;59.736;30.568;2022-09-09T01:34:31;16.85;;;7.32;;
71127;SDS011;59249;59.736;30.568;2022-09-09T01:37:08;13.83;;;6.97;;
71127;SDS011;59249;59.736;30.568;2022-09-09T01:39:41;14.00;;;6.88;;
71127;SDS011;59249;59.736;30.568;2022-09-09T01:42:16;10.43;;;5.38;;
71127;SDS011;59249;59.736;30.568;2022-09-09T01:44:46;12.77;;;6.00;;
71127;SDS011;59249;59.736;30.568;2022-09-09T01:47:15;11.98;;;5.72;;
71127;SDS011;59249;59.736;30.568;2022-09-09T01:50:10;11.43;;;5.93;;
71127;SDS011;59249;59.736;30.568;2022-09-09T01:52:44;15.43;;;7.13;;
71127;SDS011;59249;59.736;30.568;2022-09-09T01:55:23;15.63;;;5.35;;
71127;SDS011;59249;59.736;30.568;2022-09-09T01:58:07;11.43;;;5.80;;
71127;SDS011;59249;59.736;30.568;2022-09-09T02:00:54;11.35;;;6.07;;
71127;SDS011;59249;59.736;30.568;2022-09-09T02:03:33;13.07;;;5.20;;
71127;SDS011;59249;59.736;30.568;2022-09-09T02:06:13;13.15;;;6.32;;
71127;SDS011;59249;59.736;30.568;2022-09-09T02:08:59;14.07;;;5.50;;
71127;SDS011;59249;59.736;30.568;2022-09-09T02:11:33;13.10;;;6.65;;
71127;SDS011;59249;59.736;30.568;2022-09-09T02:14:14;16.50;;;6.22;;
71127;SDS011;59249;59.736;30.568;2022-09-09T02:16:50;13.73;;;6.43;;
71127;SDS011;59249;59.736;30.568;2022-09-09T02:19:35;12.10;;;6.22;;
71127;SDS011;59249;59.736;30.568;2022-09-09T02:22:20;14.05;;;6.20;;
71127;SDS011;59249;59.736;30.568;2022-09-09T02:24:54;12.75;;;6.68;;
71127;SDS011;59249;59.736;30.568;2022-09-09T02:27:29;13.40;;;7.05;;
71127;SDS011;59249;59.736;30.568;2022-09-09T02:29:59;12.40;;;4.63;;
71127;SDS011;59249;59.736;30.568;2022-09-09T02:32:39;11.00;;;5.22;;
71127;SDS011;59249;59.736;30.568;2022-09-09T02:35:13;11.93;;;6.50;;
71127;SDS011;59249;59.736;30.568;2022-09-09T02:37:45;12.55;;;5.60;;
71127;SDS011;59249;59.736;30.568;2022-09-09T02:40:15;11.52;;;5.40;;
71127;SDS011;59249;59.736;30.568;2022-09-09T02:42:48;13.47;;;6.03;;
71127;SDS011;59249;59.736;30.568;2022-09-09T02:45:22;12.48;;;5.93;;
71127;SDS011;59249;59.736;30.568;2022-09-09T02:47:59;13.52;;;5.93;;
71127;SDS011;59249;59.736;30.568;2022-09-09T02:50:44;12.73;;;5.07;;
71127;SDS011;59249;59.736;30.568;2022-09-09T02:53:31;15.38;;;5.25;;
71127;SDS011;59249;59.736;30.568;2022-09-09T02:56:11;10.93;;;4.97;;
71127;SDS011;59249;59.736;30.568;2022-09-09T02:58:47;10.98;;;4.70;;
71127;SDS011;59249;59.736;30.568;2022-09-09T03:01:20;10.70;;;4.95;;
71127;SDS011;59249;59.736;30.568;2022-09-09T03:03:49;16.33;;;7.43;;
71127;SDS011;59249;59.736;30.568;2022-09-09T03:06:17;13.38;;;6.55;;
71127;SDS011;59249;59.736;30.568;2022-09-09T03:08:52;12.47;;;6.17;;
71127;SDS011;59249;59.736;30.568;2022-09-09T03:11:25;15.02;;;6.35;;
71127;SDS011;59249;59.736;30.568;2022-09-09T03:13:54;12.65;;;6.43;;
71127;SDS011;59249;59.736;30.568;2022-09-09T03:16:26;13.85;;;5.35;;
71127;SDS011;59249;59.736;30.568;2022-09-09T03:18:56;10.85;;;6.18;;
71127;SDS011;59249;59.736;30.568;2022-09-09T03:21:25;11.33;;;5.37;;
71127;SDS011;59249;59.736;30.568;2022-09-09T03:23:54;15.75;;;6.40;;
71127;SDS011;59249;59.736;30.568;2022-09-09T03:26:24;13.75;;;6.50;;
71127;SDS011;59249;59.736;30.568;2022-09-09T03:28:52;12.20;;;5.55;;
71127;SDS011;59249;59.736;30.568;2022-09-09T03:31:22;33.25;;;16.75;;
71127;SDS011;59249;59.736;30.568;2022-09-09T03:33:53;15.53;;;6.67;;
71127;SDS011;59249;59.736;30.568;2022-09-09T03:36:22;16.77;;;6.72;;
71127;SDS011;59249;59.736;30.568;2022-09-09T03:38:52;16.80;;;7.07;;
71127;SDS011;59249;59.736;30.568;2022-09-09T03:41:24;15.65;;;7.13;;
71127;SDS011;59249;59.736;30.568;2022-09-09T03:43:53;14.23;;;6.72;;
71127;SDS011;59249;59.736;30.568;2022-09-09T03:46:24;14.53;;;7.27;;
71127;SDS011;59249;59.736;30.568;2022-09-09T03:48:56;14.25;;;7.60;;
71127;SDS011;59249;59.736;30.568;2022-09-09T03:51:25;16.67;;;7.13;;
71127;SDS011;59249;59.736;30.568;2022-09-09T03:53:54;14.32;;;7.03;;
71127;SDS011;59249;59.736;30.568;2022-09-09T03:56:26;16.73;;;8.18;;
71127;SDS011;59249;59.736;30.568;2022-09-09T03:58:55;16.57;;;7.17;;
71127;SDS011;59249;59.736;30.568;2022-09-09T04:01:25;18.35;;;7.53;;
71127;SDS011;59249;59.736;30.568;2022-09-09T04:03:57;15.68;;;6.50;;
71127;SDS011;59249;59.736;30.568;2022-09-09T04:06:26;18.13;;;6.60;;
71127;SDS011;59249;59.736;30.568;2022-09-09T04:08:55;15.32;;;6.93;;
71127;SDS011;59249;59.736;30.568;2022-09-09T04:11:25;14.07;;;6.60;;
71127;SDS011;59249;59.736;30.568;2022-09-09T04:13:57;13.27;;;6.32;;
71127;SDS011;59249;59.736;30.568;2022-09-09T04:16:27;13.02;;;6.50;;
71127;SDS011;59249;59.736;30.568;2022-09-09T04:18:57;14.57;;;6.97;;
71127;SDS011;59249;59.736;30.568;2022-09-09T04:21:26;16.40;;;7.00;;
71127;SDS011;59249;59.736;30.568;2022-09-09T04:23:55;13.37;;;5.73;;
71127;SDS011;59249;59.736;30.568;2022-09-09T04:26:25;13.15;;;5.65;;
71127;SDS011;59249;59.736;30.568;2022-09-09T04:28:54;11.77;;;4.85;;
71127;SDS011;59249;59.736;30.568;2022-09-09T04:31:23;14.38;;;6.20;;
71127;SDS011;59249;59.736;30.568;2022-09-09T04:33:56;13.32;;;6.22;;
71127;SDS011;59249;59.736;30.568;2022-09-09T04:36:29;11.70;;;5.70;;
71127;SDS011;59249;59.736;30.568;2022-09-09T04:39:01;12.02;;;5.88;;
71127;SDS011;59249;59.736;30.568;2022-09-09T04:41:31;13.40;;;5.53;;
71127;SDS011;59249;59.736;30.568;2022-09-09T04:44:01;14.57;;;7.15;;
71127;SDS011;59249;59.736;30.568;2022-09-09T04:46:31;15.07;;;6.50;;
71127;SDS011;59249;59.736;30.568;2022-09-09T04:49:02;12.10;;;5.57;;
71127;SDS011;59249;59.736;30.568;2022-09-09T04:51:32;13.73;;;5.28;;
71127;SDS011;59249;59.736;30.568;2022-09-09T04:54:02;13.48;;;5.78;;
71127;SDS011;59249;59.736;30.568;2022-09-09T04:56:32;10.55;;;5.47;;
71127;SDS011;59249;59.736;30.568;2022-09-09T04:59:00;11.93;;;6.13;;
71127;SDS011;59249;59.736;30.568;2022-09-09T05:01:37;12.37;;;6.03;;
71127;SDS011;59249;59.736;30.568;2022-09-09T05:04:07;10.30;;;4.28;;
71127;SDS011;59249;59.736;30.568;2022-09-09T05:06:36;10.90;;;4.82;;
71127;SDS011;59249;59.736;30.568;2022-09-09T05:09:04;11.43;;;5.22;;
71127;SDS011;59249;59.736;30.568;2022-09-09T05:11:33;36.28;;;20.08;;
71127;SDS011;59249;59.736;30.568;2022-09-09T05:14:23;14.90;;;7.17;;
71127;SDS011;59249;59.736;30.568;2022-09-09T05:16:53;14.95;;;6.28;;
71127;SDS011;59249;59.736;30.568;2022-09-09T05:19:24;11.95;;;5.85;;
71127;SDS011;59249;59.736;30.568;2022-09-09T05:21:53;13.02;;;5.40;;
71127;SDS011;59249;59.736;30.568;2022-09-09T05:24:29;15.68;;;5.43;;
71127;SDS011;59249;59.736;30.568;2022-09-09T05:27:02;11.17;;;4.80;;
71127;SDS011;59249;59.736;30.568;2022-09-09T05:29:32;12.63;;;5.70;;
71127;SDS011;59249;59.736;30.568;2022-09-09T05:32:03;15.63;;;5.68;;
71127;SDS011;59249;59.736;30.568;2022-09-09T05:34:35;13.90;;;5.88;;
71127;SDS011;59249;59.736;30.568;2022-09-09T05:37:06;11.98;;;5.25;;
71127;SDS011;59249;59.736;30.568;2022-09-09T05:39:36;9.10;;;3.50;;
71127;SDS011;59249;59.736;30.568;2022-09-09T05:42:05;10.75;;;4.55;;
71127;SDS011;59249;59.736;30.568;2022-09-09T05:44:34;12.30;;;5.15;;
71127;SDS011;59249;59.736;30.568;2022-09-09T05:47:03;12.82;;;5.78;;
71127;SDS011;59249;59.736;30.568;2022-09-09T05:49:33;11.80;;;4.90;;
71127;SDS011;59249;59.736;30.568;2022-09-09T05:52:03;10.90;;;4.53;;
71127;SDS011;59249;59.736;30.568;2022-09-09T05:54:33;9.63;;;4.70;;
71127;SDS011;59249;59.736;30.568;2022-09-09T05:57:04;8.45;;;4.10;;
71127;SDS011;59249;59.736;30.568;2022-09-09T05:59:33;12.63;;;4.35;;
71127;SDS011;59249;59.736;30.568;2022-09-09T06:02:01;9.75;;;4.18;;
71127;SDS011;59249;59.736;30.568;2022-09-09T06:04:37;7.00;;;3.07;;
71127;SDS011;59249;59.736;30.568;2022-09-09T06:07:06;11.80;;;3.60;;
71127;SDS011;59249;59.736;30.568;2022-09-09T06:09:35;9.07;;;2.88;;
71127;SDS011;59249;59.736;30.568;2022-09-09T06:12:06;12.82;;;2.75;;
71127;SDS011;59249;59.736;30.568;2022-09-09T06:14:37;7.30;;;2.40;;
71127;SDS011;59249;59.736;30.568;2022-09-09T06:17:12;6.20;;;1.80;;
71127;SDS011;59249;59.736;30.568;2022-09-09T06:19:42;8.32;;;2.13;;
71127;SDS011;59249;59.736;30.568;2022-09-09T06:22:11;5.68;;;1.70;;
71127;SDS011;59249;59.736;30.568;2022-09-09T06:24:40;9.40;;;2.10;;
71127;SDS011;59249;59.736;30.568;2022-09-09T06:27:09;6.30;;;2.13;;
71127;SDS011;59249;59.736;30.568;2022-09-09T06:29:41;4.90;;;1.67;;
71127;SDS011;59249;59.736;30.568;2022-09-09T06:32:09;6.65;;;1.77;;
71127;SDS011;59249;59.736;30.568;2022-09-09T06:34:39;8.18;;;1.58;;
71127;SDS011;59249;59.736;30.568;2022-09-09T06:37:10;6.22;;;1.63;;
71127;SDS011;59249;59.736;30.568;2022-09-09T06:39:45;5.78;;;1.40;;
71127;SDS011;59249;59.736;30.568;2022-09-09T06:42:15;5.30;;;1.70;;
71127;SDS011;59249;59.736;30.568;2022-09-09T06:45:16;7.75;;;2.20;;
71127;SDS011;59249;59.736;30.568;2022-09-09T06:47:54;7.97;;;1.70;;
71127;SDS011;59249;59.736;30.568;2022-09-09T06:50:23;5.57;;;1.90;;
71127;SDS011;59249;59.736;30.568;2022-09-09T06:52:54;6.15;;;2.05;;
71127;SDS011;59249;59.736;30.568;2022-09-09T06:55:22;7.07;;;1.90;;
71127;SDS011;59249;59.736;30.568;2022-09-09T06:57:51;7.72;;;2.10;;
71127;SDS011;59249;59.736;30.568;2022-09-09T07:00:22;7.45;;;1.92;;
71127;SDS011;59249;59.736;30.568;2022-09-09T07:02:51;4.80;;;1.25;;
71127;SDS011;59249;59.736;30.568;2022-09-09T07:05:20;6.60;;;1.75;;
71127;SDS011;59249;59.736;30.568;2022-09-09T07:07:50;6.07;;;1.80;;
71127;SDS011;59249;59.736;30.568;2022-09-09T07:10:21;4.70;;;1.50;;
71127;SDS011;59249;59.736;30.568;2022-09-09T07:12:50;4.68;;;1.25;;
71127;SDS011;59249;59.736;30.568;2022-09-09T07:15:22;4.40;;;1.48;;
71127;SDS011;59249;59.736;30.568;2022-09-09T07:17:52;5.00;;;1.25;;
71127;SDS011;59249;59.736;30.568;2022-09-09T07:20:21;5.50;;;1.93;;
71127;SDS011;59249;59.736;30.568;2022-09-09T07:22:54;6.60;;;1.40;;
71127;SDS011;59249;59.736;30.568;2022-09-09T07:25:26;4.38;;;1.00;;
71127;SDS011;59249;59.736;30.568;2022-09-09T07:27:57;8.48;;;1.30;;
71127;SDS011;59249;59.736;30.568;2022-09-09T07:30:25;3.42;;;0.65;;
71127;SDS011;59249;59.736;30.568;2022-09-09T07:32:57;4.73;;;1.40;;
71127;SDS011;59249;59.736;30.568;2022-09-09T07:35:26;2.33;;;0.70;;
71127;SDS011;59249;59.736;30.568;2022-09-09T07:37:55;3.58;;;0.70;;
71127;SDS011;59249;59.736;30.568;2022-09-09T07:40:26;1.90;;;0.40;;
71127;SDS011;59249;59.736;30.568;2022-09-09T07:42:57;3.05;;;0.40;;
71127;SDS011;59249;59.736;30.568;2022-09-09T07:45:26;2.20;;;0.50;;
71127;SDS011;59249;59.736;30.568;2022-09-09T07:47:55;2.58;;;0.75;;
71127;SDS011;59249;59.736;30.568;2022-09-09T07:50:24;3.75;;;0.63;;
71127;SDS011;59249;59.736;30.568;2022-09-09T07:52:53;1.98;;;0.60;;
71127;SDS011;59249;59.736;30.568;2022-09-09T07:55:24;3.42;;;0.57;;
71127;SDS011;59249;59.736;30.568;2022-09-09T07:57:55;1.83;;;0.50;;
71127;SDS011;59249;59.736;30.568;2022-09-09T08:00:24;4.22;;;0.52;;
71127;SDS011;59249;59.736;30.568;2022-09-09T08:02:56;3.05;;;0.60;;
71127;SDS011;59249;59.736;30.568;2022-09-09T08:05:25;3.13;;;1.25;;
71127;SDS011;59249;59.736;30.568;2022-09-09T08:07:54;4.20;;;0.90;;
71127;SDS011;59249;59.736;30.568;2022-09-09T08:10:23;3.37;;;0.60;;
71127;SDS011;59249;59.736;30.568;2022-09-09T08:12:55;2.95;;;0.70;;
71127;SDS011;59249;59.736;30.568;2022-09-09T08:15:43;2.40;;;0.73;;
71127;SDS011;59249;59.736;30.568;2022-09-09T08:18:12;2.80;;;0.80;;
71127;SDS011;59249;59.736;30.568;2022-09-09T08:20:43;2.55;;;0.63;;
71127;SDS011;59249;59.736;30.568;2022-09-09T08:23:12;2.60;;;0.60;;
71127;SDS011;59249;59.736;30.568;2022-09-09T08:25:40;2.28;;;0.60;;
71127;SDS011;59249;59.736;30.568;2022-09-09T08:28:11;4.03;;;0.50;;
71127;SDS011;59249;59.736;30.568;2022-09-09T08:30:39;3.30;;;0.40;;
71127;SDS011;59249;59.736;30.568;2022-09-09T08:33:09;3.78;;;0.70;;
71127;SDS011;59249;59.736;30.568;2022-09-09T08:35:37;4.37;;;0.70;;
71127;SDS011;59249;59.736;30.568;2022-09-09T08:38:06;3.10;;;0.55;;
71127;SDS011;59249;59.736;30.568;2022-09-09T08:40:38;2.83;;;0.40;;
71127;SDS011;59249;59.736;30.568;2022-09-09T08:43:19;3.42;;;0.80;;
71127;SDS011;59249;59.736;30.568;2022-09-09T08:45:54;2.08;;;0.60;;
71127;SDS011;59249;59.736;30.568;2022-09-09T08:48:37;4.50;;;0.60;;
71127;SDS011;59249;59.736;30.568;2022-09-09T08:51:19;1.95;;;0.80;;
71127;SDS011;59249;59.736;30.568;2022-09-09T08:53:50;2.40;;;0.70;;
71127;SDS011;59249;59.736;30.568;2022-09-09T08:56:25;3.50;;;0.60;;
71127;SDS011;59249;59.736;30.568;2022-09-09T08:59:02;2.38;;;0.50;;
71127;SDS011;59249;59.736;30.568;2022-09-09T09:01:40;3.87;;;0.80;;
71127;SDS011;59249;59.736;30.568;2022-09-09T09:04:34;2.13;;;0.40;;
71127;SDS011;59249;59.736;30.568;2022-09-09T09:07:21;6.00;;;0.70;;
71127;SDS011;59249;59.736;30.568;2022-09-09T09:10:09;2.13;;;0.40;;
71127;SDS011;59249;59.736;30.568;2022-09-09T09:13:07;2.13;;;0.70;;
71127;SDS011;59249;59.736;30.568;2022-09-09T09:15:46;4.13;;;0.70;;
71127;SDS011;59249;59.736;30.568;2022-09-09T09:18:23;7.65;;;2.70;;
71127;SDS011;59249;59.736;30.568;2022-09-09T09:20:54;2.85;;;0.55;;
71127;SDS011;59249;59.736;30.568;2022-09-09T09:23:35;3.33;;;0.70;;
71127;SDS011;59249;59.736;30.568;2022-09-09T09:26:13;3.90;;;1.00;;
71127;SDS011;59249;59.736;30.568;2022-09-09T09:28:42;4.50;;;0.80;;
71127;SDS011;59249;59.736;30.568;2022-09-09T09:31:16;2.72;;;0.80;;
71127;SDS011;59249;59.736;30.568;2022-09-09T09:33:49;3.72;;;0.70;;
71127;SDS011;59249;59.736;30.568;2022-09-09T09:36:24;3.90;;;0.65;;
71127;SDS011;59249;59.736;30.568;2022-09-09T09:39:04;2.47;;;0.55;;
71127;SDS011;59249;59.736;30.568;2022-09-09T09:41:56;1.80;;;0.60;;
71127;SDS011;59249;59.736;30.568;2022-09-09T09:44:32;5.93;;;0.90;;
71127;SDS011;59249;59.736;30.568;2022-09-09T09:47:14;2.42;;;0.60;;
71127;SDS011;59249;59.736;30.568;2022-09-09T09:49:55;1.85;;;0.52;;
71127;SDS011;59249;59.736;30.568;2022-09-09T09:52:30;3.33;;;0.40;;
71127;SDS011;59249;59.736;30.568;2022-09-09T09:55:03;3.50;;;0.60;;
71127;SDS011;59249;59.736;30.568;2022-09-09T09:57:44;2.28;;;0.50;;
71127;SDS011;59249;59.736;30.568;2022-09-09T10:00:14;2.92;;;0.50;;
71127;SDS011;59249;59.736;30.568;2022-09-09T10:02:54;4.07;;;0.95;;
71127;SDS011;59249;59.736;30.568;2022-09-09T10:05:27;3.85;;;1.05;;
71127;SDS011;59249;59.736;30.568;2022-09-09T10:08:10;5.43;;;0.63;;
71127;SDS011;59249;59.736;30.568;2022-09-09T10:10:45;3.28;;;0.90;;
71127;SDS011;59249;59.736;30.568;2022-09-09T10:13:40;2.47;;;0.77;;
71127;SDS011;59249;59.736;30.568;2022-09-09T10:16:20;2.38;;;0.60;;
71127;SDS011;59249;59.736;30.568;2022-09-09T10:19:09;4.32;;;0.80;;
71127;SDS011;59249;59.736;30.568;2022-09-09T10:28:04;4.78;;;1.00;;
71127;SDS011;59249;59.736;30.568;2022-09-09T10:30:56;2.78;;;0.88;;
71127;SDS011;59249;59.736;30.568;2022-09-09T10:33:42;4.32;;;0.88;;
71127;SDS011;59249;59.736;30.568;2022-09-09T10:36:21;4.00;;;1.00;;
71127;SDS011;59249;59.736;30.568;2022-09-09T10:38:53;3.53;;;0.98;;
71127;SDS011;59249;59.736;30.568;2022-09-09T10:41:33;4.18;;;0.80;;
71127;SDS011;59249;59.736;30.568;2022-09-09T10:44:25;3.05;;;0.85;;
71127;SDS011;59249;59.736;30.568;2022-09-09T10:47:20;2.70;;;0.80;;
71127;SDS011;59249;59.736;30.568;2022-09-09T10:53:39;2.90;;;0.73;;
71127;SDS011;59249;59.736;30.568;2022-09-09T10:56:21;3.55;;;0.60;;
71127;SDS011;59249;59.736;30.568;2022-09-09T10:58:52;5.22;;;0.90;;
71127;SDS011;59249;59.736;30.568;2022-09-09T11:01:29;4.78;;;0.82;;
71127;SDS011;59249;59.736;30.568;2022-09-09T11:04:09;4.60;;;0.90;;
71127;SDS011;59249;59.736;30.568;2022-09-09T11:06:48;3.80;;;0.65;;
71127;SDS011;59249;59.736;30.568;2022-09-09T11:09:23;4.28;;;0.90;;
71127;SDS011;59249;59.736;30.568;2022-09-09T11:11:59;2.92;;;0.63;;
71127;SDS011;59249;59.736;30.568;2022-09-09T11:14:30;3.08;;;0.70;;
71127;SDS011;59249;59.736;30.568;2022-09-09T11:17:08;3.30;;;1.00;;
71127;SDS011;59249;59.736;30.568;2022-09-09T11:19:43;4.07;;;1.10;;
71127;SDS011;59249;59.736;30.568;2022-09-09T11:22:15;4.70;;;1.20;;
71127;SDS011;59249;59.736;30.568;2022-09-09T11:24:54;7.18;;;1.20;;
71127;SDS011;59249;59.736;30.568;2022-09-09T11:27:35;4.40;;;1.00;;
71127;SDS011;59249;59.736;30.568;2022-09-09T11:30:18;2.60;;;0.83;;
71127;SDS011;59249;59.736;30.568;2022-09-09T11:33:26;3.58;;;1.00;;
71127;SDS011;59249;59.736;30.568;2022-09-09T11:36:39;3.72;;;0.85;;
71127;SDS011;59249;59.736;30.568;2022-09-09T11:42:23;3.40;;;0.80;;
71127;SDS011;59249;59.736;30.568;2022-09-09T11:44:53;3.37;;;1.07;;
71127;SDS011;59249;59.736;30.568;2022-09-09T11:47:23;4.85;;;1.08;;
71127;SDS011;59249;59.736;30.568;2022-09-09T11:50:07;3.80;;;1.00;;
71127;SDS011;59249;59.736;30.568;2022-09-09T11:53:03;4.38;;;1.08;;
71127;SDS011;59249;59.736;30.568;2022-09-09T11:56:04;4.30;;;0.90;;
71127;SDS011;59249;59.736;30.568;2022-09-09T11:58:40;4.57;;;1.83;;
71127;SDS011;59249;59.736;30.568;2022-09-09T12:01:14;3.88;;;1.20;;
71127;SDS011;59249;59.736;30.568;2022-09-09T12:07:21;4.65;;;1.10;;
71127;SDS011;59249;59.736;30.568;2022-09-09T12:10:01;4.07;;;0.98;;
71127;SDS011;59249;59.736;30.568;2022-09-09T12:12:47;5.13;;;1.27;;
71127;SDS011;59249;59.736;30.568;2022-09-09T12:15:21;7.28;;;2.03;;
71127;SDS011;59249;59.736;30.568;2022-09-09T12:17:56;4.80;;;1.40;;
71127;SDS011;59249;59.736;30.568;2022-09-09T12:20:33;4.40;;;1.30;;
71127;SDS011;59249;59.736;30.568;2022-09-09T12:23:16;8.55;;;2.80;;
71127;SDS011;59249;59.736;30.568;2022-09-09T12:26:04;4.87;;;1.40;;
71127;SDS011;59249;59.736;30.568;2022-09-09T12:29:02;5.55;;;1.73;;
71127;SDS011;59249;59.736;30.568;2022-09-09T12:31:48;8.75;;;2.03;;
71127;SDS011;59249;59.736;30.568;2022-09-09T12:34:32;5.00;;;1.77;;
71127;SDS011;59249;59.736;30.568;2022-09-09T12:37:13;6.78;;;1.85;;
71127;SDS011;59249;59.736;30.568;2022-09-09T12:39:55;5.67;;;1.80;;
71127;SDS011;59249;59.736;30.568;2022-09-09T12:42:26;5.28;;;1.92;;
71127;SDS011;59249;59.736;30.568;2022-09-09T12:44:56;5.00;;;1.58;;
71127;SDS011;59249;59.736;30.568;2022-09-09T12:47:33;4.72;;;1.77;;
71127;SDS011;59249;59.736;30.568;2022-09-09T12:50:15;4.18;;;0.90;;
71127;SDS011;59249;59.736;30.568;2022-09-09T12:52:47;3.13;;;0.90;;
71127;SDS011;59249;59.736;30.568;2022-09-09T12:55:21;3.67;;;1.33;;
71127;SDS011;59249;59.736;30.568;2022-09-09T12:57:53;4.20;;;1.30;;
71127;SDS011;59249;59.736;30.568;2022-09-09T13:00:23;3.83;;;0.90;;
71127;SDS011;59249;59.736;30.568;2022-09-09T13:02:55;2.50;;;0.80;;
71127;SDS011;59249;59.736;30.568;2022-09-09T13:05:28;3.20;;;1.00;;
71127;SDS011;59249;59.736;30.568;2022-09-09T13:08:04;4.00;;;0.80;;
71127;SDS011;59249;59.736;30.568;2022-09-09T13:10:37;3.47;;;0.88;;
71127;SDS011;59249;59.736;30.568;2022-09-09T13:13:26;4.72;;;1.20;;
71127;SDS011;59249;59.736;30.568;2022-09-09T13:15:59;3.13;;;1.15;;
71127;SDS011;59249;59.736;30.568;2022-09-09T13:18:33;3.27;;;0.90;;
71127;SDS011;59249;59.736;30.568;2022-09-09T13:21:04;8.00;;;1.30;;
71127;SDS011;59249;59.736;30.568;2022-09-09T13:23:34;4.15;;;1.20;;
71127;SDS011;59249;59.736;30.568;2022-09-09T13:26:06;3.40;;;1.17;;
71127;SDS011;59249;59.736;30.568;2022-09-09T13:28:49;4.15;;;1.25;;
71127;SDS011;59249;59.736;30.568;2022-09-09T13:31:20;3.77;;;1.20;;
71127;SDS011;59249;59.736;30.568;2022-09-09T13:33:52;4.63;;;0.90;;
71127;SDS011;59249;59.736;30.568;2022-09-09T13:36:27;4.10;;;1.25;;
71127;SDS011;59249;59.736;30.568;2022-09-09T13:38:59;4.15;;;0.90;;
71127;SDS011;59249;59.736;30.568;2022-09-09T13:41:32;4.57;;;1.48;;
71127;SDS011;59249;59.736;30.568;2022-09-09T13:44:03;4.03;;;1.20;;
71127;SDS011;59249;59.736;30.568;2022-09-09T13:46:34;4.53;;;1.08;;
71127;SDS011;59249;59.736;30.568;2022-09-09T13:49:19;3.97;;;1.17;;
71127;SDS011;59249;59.736;30.568;2022-09-09T13:51:50;4.53;;;1.20;;
71127;SDS011;59249;59.736;30.568;2022-09-09T13:54:30;5.80;;;1.30;;
71127;SDS011;59249;59.736;30.568;2022-09-09T13:56:59;3.83;;;1.20;;
71127;SDS011;59249;59.736;30.568;2022-09-09T13:59:28;4.03;;;1.55;;
71127;SDS011;59249;59.736;30.568;2022-09-09T14:02:16;4.15;;;1.42;;
71127;SDS011;59249;59.736;30.568;2022-09-09T14:04:48;4.45;;;1.10;;
71127;SDS011;59249;59.736;30.568;2022-09-09T14:07:21;5.72;;;1.20;;
71127;SDS011;59249;59.736;30.568;2022-09-09T14:09:50;4.90;;;1.50;;
71127;SDS011;59249;59.736;30.568;2022-09-09T14:12:19;5.05;;;1.45;;
71127;SDS011;59249;59.736;30.568;2022-09-09T14:14:48;4.65;;;1.33;;
71127;SDS011;59249;59.736;30.568;2022-09-09T14:17:16;6.80;;;1.60;;
71127;SDS011;59249;59.736;30.568;2022-09-09T14:19:45;4.50;;;1.50;;
71127;SDS011;59249;59.736;30.568;2022-09-09T14:22:15;3.40;;;1.20;;
71127;SDS011;59249;59.736;30.568;2022-09-09T14:24:44;3.67;;;1.23;;
71127;SDS011;59249;59.736;30.568;2022-09-09T14:27:13;2.80;;;1.10;;
71127;SDS011;59249;59.736;30.568;2022-09-09T14:29:42;3.25;;;1.75;;
71127;SDS011;59249;59.736;30.568;2022-09-09T14:32:11;5.32;;;1.40;;
71127;SDS011;59249;59.736;30.568;2022-09-09T14:34:40;4.20;;;0.90;;
71127;SDS011;59249;59.736;30.568;2022-09-09T14:37:10;17.10;;;8.77;;
71127;SDS011;59249;59.736;30.568;2022-09-09T14:39:39;9.48;;;2.95;;
71127;SDS011;59249;59.736;30.568;2022-09-09T14:42:10;3.92;;;1.52;;
71127;SDS011;59249;59.736;30.568;2022-09-09T14:44:39;4.78;;;1.27;;
71127;SDS011;59249;59.736;30.568;2022-09-09T14:47:08;4.10;;;1.20;;
71127;SDS011;59249;59.736;30.568;2022-09-09T14:49:37;4.53;;;1.48;;
71127;SDS011;59249;59.736;30.568;2022-09-09T14:52:12;4.65;;;1.35;;
71127;SDS011;59249;59.736;30.568;2022-09-09T14:54:40;4.38;;;1.40;;
71127;SDS011;59249;59.736;30.568;2022-09-09T14:57:09;4.95;;;1.50;;
71127;SDS011;59249;59.736;30.568;2022-09-09T14:59:38;4.40;;;1.40;;
71127;SDS011;59249;59.736;30.568;2022-09-09T15:02:07;3.92;;;1.33;;
71127;SDS011;59249;59.736;30.568;2022-09-09T15:04:37;5.57;;;1.38;;
71127;SDS011;59249;59.736;30.568;2022-09-09T15:07:05;8.10;;;1.35;;
71127;SDS011;59249;59.736;30.568;2022-09-09T15:09:36;6.05;;;1.65;;
71127;SDS011;59249;59.736;30.568;2022-09-09T15:12:05;4.40;;;1.17;;
71127;SDS011;59249;59.736;30.568;2022-09-09T15:14:34;5.03;;;1.38;;
71127;SDS011;59249;59.736;30.568;2022-09-09T15:17:03;4.95;;;1.13;;
71127;SDS011;59249;59.736;30.568;2022-09-09T15:19:32;5.10;;;1.20;;
71127;SDS011;59249;59.736;30.568;2022-09-09T15:22:01;4.13;;;1.25;;
71127;SDS011;59249;59.736;30.568;2022-09-09T15:24:31;4.57;;;1.57;;
71127;SDS011;59249;59.736;30.568;2022-09-09T15:27:02;5.88;;;1.50;;
71127;SDS011;59249;59.736;30.568;2022-09-09T15:29:31;5.47;;;1.58;;